createdAt,value
2017-12-29T00:00:14.227Z,84.40
2017-12-29T00:02:42.548Z,84.30
2017-12-29T00:05:10.854Z,84.20
2017-12-29T00:07:39.174Z,84.20
2017-12-29T00:10:06.705Z,84.20
2017-12-29T00:12:34.267Z,84.40
2017-12-29T00:15:02.575Z,84.40
2017-12-29T00:17:30.890Z,84.60
2017-12-29T00:19:59.187Z,84.60
2017-12-29T00:22:27.502Z,84.60
2017-12-29T00:24:55.794Z,84.60
2017-12-29T00:27:24.091Z,84.70
2017-12-29T00:29:52.403Z,84.70
2017-12-29T00:32:20.712Z,84.70
2017-12-29T00:34:49.030Z,84.70
2017-12-29T00:37:16.573Z,84.70
2017-12-29T00:39:44.128Z,84.80
2017-12-29T00:42:13.610Z,84.80
2017-12-29T00:44:41.934Z,84.80
2017-12-29T00:47:09.474Z,84.80
2017-12-29T00:49:37.809Z,84.90
2017-12-29T00:52:05.339Z,84.90
2017-12-29T00:54:34.090Z,84.70
2017-12-29T00:57:02.420Z,84.80
2017-12-29T00:59:30.718Z,84.80
2017-12-29T01:01:59.039Z,84.70
2017-12-29T01:04:26.571Z,84.70
2017-12-29T01:06:54.887Z,84.90
2017-12-29T01:09:23.186Z,84.90
2017-12-29T01:11:51.504Z,85.00
2017-12-29T01:14:19.046Z,85.00
2017-12-29T01:16:47.379Z,85.10
2017-12-29T01:19:14.942Z,85.10
2017-12-29T01:21:42.480Z,85.20
2017-12-29T01:24:10.802Z,85.20
2017-12-29T01:26:39.099Z,85.30
2017-12-29T01:29:06.651Z,85.30
2017-12-29T01:31:34.949Z,85.30
2017-12-29T01:34:03.266Z,85.30
2017-12-29T01:36:31.564Z,85.20
2017-12-29T01:38:59.900Z,85.10
2017-12-29T01:41:27.438Z,85.10
2017-12-29T01:43:54.970Z,85.00
2017-12-29T01:46:23.290Z,85.20
2017-12-29T01:48:51.586Z,85.10
2017-12-29T01:51:19.918Z,85.10
2017-12-29T01:53:48.222Z,84.90
2017-12-29T01:56:16.554Z,84.80
2017-12-29T01:58:44.846Z,84.90
2017-12-29T02:01:13.162Z,84.80
2017-12-29T02:03:41.466Z,84.90
2017-12-29T02:06:09.794Z,85.00
2017-12-29T02:08:38.100Z,84.90
2017-12-29T02:11:05.666Z,85.00
2017-12-29T02:13:33.971Z,84.90
2017-12-29T02:16:02.266Z,84.90
2017-12-29T02:18:30.583Z,84.90
2017-12-29T02:20:58.124Z,84.90
2017-12-29T02:23:25.678Z,84.80
2017-12-29T02:25:53.974Z,84.80
2017-12-29T02:28:21.527Z,84.80
2017-12-29T02:30:49.832Z,84.60
2017-12-29T02:33:18.167Z,84.70
2017-12-29T02:35:46.470Z,84.90
2017-12-29T02:38:14.775Z,84.90
2017-12-29T02:40:43.113Z,85.00
2017-12-29T02:43:10.646Z,85.00
2017-12-29T02:45:38.975Z,84.90
2017-12-29T02:48:07.287Z,85.10
2017-12-29T02:50:35.603Z,85.20
2017-12-29T02:53:03.898Z,85.30
2017-12-29T02:55:32.236Z,85.50
2017-12-29T02:58:00.544Z,85.60
2017-12-29T03:00:28.118Z,85.70
2017-12-29T03:02:56.412Z,85.90
2017-12-29T03:05:24.709Z,85.70
2017-12-29T03:07:52.262Z,85.60
2017-12-29T03:10:20.560Z,85.70
2017-12-29T03:12:48.915Z,85.50
2017-12-29T03:15:17.216Z,86.30
2017-12-29T03:17:45.538Z,85.30
2017-12-29T03:20:13.832Z,85.30
2017-12-29T03:22:41.398Z,85.30
2017-12-29T03:25:09.690Z,85.70
2017-12-29T03:27:37.982Z,85.90
2017-12-29T03:30:06.303Z,85.90
2017-12-29T03:32:34.608Z,85.90
2017-12-29T03:35:02.934Z,85.90
2017-12-29T03:37:30.494Z,86.00
2017-12-29T03:39:58.051Z,86.00
2017-12-29T03:42:25.589Z,86.00
2017-12-29T03:44:53.915Z,85.50
2017-12-29T03:47:22.215Z,85.20
2017-12-29T03:49:51.290Z,85.10
2017-12-29T03:52:19.611Z,84.90
2017-12-29T03:54:47.902Z,84.90
2017-12-29T03:57:15.462Z,84.90
2017-12-29T03:59:43.767Z,84.60
2017-12-29T04:02:12.084Z,84.80
2017-12-29T04:04:40.387Z,84.80
2017-12-29T04:07:08.751Z,84.80
2017-12-29T04:09:37.054Z,84.90
2017-12-29T04:12:05.360Z,85.10
2017-12-29T04:14:33.251Z,85.00
2017-12-29T04:17:01.556Z,85.30
2017-12-29T04:19:29.879Z,85.50
2017-12-29T04:21:58.174Z,85.50
2017-12-29T04:24:25.742Z,85.40
2017-12-29T04:26:54.044Z,85.50
2017-12-29T04:29:21.585Z,85.50
2017-12-29T04:31:49.907Z,85.40
2017-12-29T04:34:18.211Z,85.50
2017-12-29T04:36:46.535Z,85.50
2017-12-29T04:39:14.851Z,85.50
2017-12-29T04:41:42.429Z,85.50
2017-12-29T04:44:10.750Z,85.50
2017-12-29T04:46:39.056Z,85.80
2017-12-29T04:49:07.377Z,85.80
2017-12-29T04:51:35.675Z,85.50
2017-12-29T04:54:03.229Z,85.50
2017-12-29T04:56:31.533Z,85.50
2017-12-29T04:58:59.857Z,85.60
2017-12-29T05:01:28.156Z,85.80
2017-12-29T05:03:55.724Z,85.70
2017-12-29T05:06:24.043Z,86.00
2017-12-29T05:08:52.334Z,85.80
2017-12-29T05:11:20.667Z,85.80
2017-12-29T05:13:48.210Z,85.80
2017-12-29T05:16:16.540Z,85.60
2017-12-29T05:18:44.834Z,85.50
2017-12-29T05:21:13.145Z,85.30
2017-12-29T05:23:41.443Z,85.30
2017-12-29T05:26:09.778Z,85.20
2017-12-29T05:28:37.318Z,85.20
2017-12-29T05:31:05.619Z,85.50
2017-12-29T05:33:33.939Z,85.60
2017-12-29T05:36:02.234Z,85.50
2017-12-29T05:38:30.553Z,85.30
2017-12-29T05:40:58.088Z,85.30
2017-12-29T05:43:26.423Z,85.10
2017-12-29T05:45:54.723Z,85.20
2017-12-29T05:48:22.278Z,85.10
2017-12-29T05:50:50.581Z,85.30
2017-12-29T05:53:18.916Z,85.40
2017-12-29T05:55:47.221Z,85.30
2017-12-29T05:58:14.760Z,85.30
2017-12-29T06:00:43.084Z,85.40
2017-12-29T06:03:10.623Z,85.40
2017-12-29T06:05:38.949Z,85.50
2017-12-29T06:08:07.253Z,85.70
2017-12-29T06:10:35.576Z,85.90
2017-12-29T06:13:03.870Z,86.00
2017-12-29T06:15:32.190Z,86.10
2017-12-29T06:18:00.500Z,86.10
2017-12-29T06:20:28.061Z,86.20
2017-12-29T06:22:56.367Z,86.10
2017-12-29T06:25:24.712Z,85.90
2017-12-29T06:27:52.242Z,85.90
2017-12-29T06:30:19.775Z,85.90
2017-12-29T06:32:48.098Z,85.80
2017-12-29T06:35:16.399Z,85.80
2017-12-29T06:37:44.716Z,85.80
2017-12-29T06:40:13.015Z,85.80
2017-12-29T06:42:41.343Z,85.70
2017-12-29T06:45:09.639Z,85.60
2017-12-29T06:47:37.966Z,85.80
2017-12-29T06:50:06.266Z,85.90
2017-12-29T06:52:33.837Z,85.90
2017-12-29T06:55:02.147Z,85.80
2017-12-29T06:57:30.467Z,85.90
2017-12-29T06:59:58.766Z,86.00
2017-12-29T07:02:27.106Z,86.00
2017-12-29T07:04:55.412Z,86.10
2017-12-29T07:07:23.737Z,86.20
2017-12-29T07:09:52.038Z,86.20
2017-12-29T07:12:20.360Z,86.20
2017-12-29T07:14:48.689Z,86.20
2017-12-29T07:17:17.014Z,86.10
2017-12-29T07:19:44.558Z,86.20
2017-12-29T07:22:12.884Z,85.90
2017-12-29T07:24:41.190Z,85.70
2017-12-29T07:27:09.511Z,85.50
2017-12-29T07:29:37.823Z,85.20
2017-12-29T07:32:05.382Z,85.30
2017-12-29T07:34:33.689Z,84.40
2017-12-29T07:37:02.012Z,84.30
2017-12-29T07:39:30.313Z,84.20
2017-12-29T07:41:57.886Z,84.20
2017-12-29T07:44:26.189Z,83.90
2017-12-29T07:46:54.494Z,83.50
2017-12-29T07:49:22.074Z,83.50
2017-12-29T07:51:50.368Z,83.30
2017-12-29T07:54:18.696Z,83.30
2017-12-29T07:56:46.996Z,82.90
2017-12-29T07:59:14.555Z,82.10
2017-12-29T08:01:42.854Z,82.40
2017-12-29T08:04:11.182Z,81.80
2017-12-29T08:06:39.483Z,81.80
2017-12-29T08:09:07.807Z,80.80
2017-12-29T08:11:35.357Z,80.80
2017-12-29T08:14:03.679Z,80.30
2017-12-29T08:16:31.980Z,80.30
2017-12-29T08:19:00.304Z,80.40
2017-12-29T08:21:28.608Z,80.60
2017-12-29T08:23:56.935Z,80.60
2017-12-29T08:26:25.246Z,80.70
2017-12-29T08:28:53.576Z,80.70
2017-12-29T08:31:21.875Z,80.20
2017-12-29T08:33:50.198Z,79.80
2017-12-29T08:36:18.498Z,79.70
2017-12-29T08:38:46.060Z,79.70
2017-12-29T08:41:13.598Z,79.70
2017-12-29T08:43:41.921Z,78.40
2017-12-29T08:46:10.234Z,78.70
2017-12-29T08:48:37.797Z,78.70
2017-12-29T08:51:06.111Z,78.90
2017-12-29T08:53:34.440Z,79.00
2017-12-29T08:56:02.740Z,79.10
2017-12-29T08:58:31.073Z,79.10
2017-12-29T09:00:59.376Z,79.00
2017-12-29T09:03:27.715Z,79.40
2017-12-29T09:05:56.015Z,79.40
2017-12-29T09:08:24.338Z,79.40
2017-12-29T09:10:52.647Z,79.40
2017-12-29T09:13:20.206Z,79.40
2017-12-29T09:15:48.539Z,79.50
2017-12-29T09:18:16.862Z,79.40
2017-12-29T09:20:44.402Z,79.40
2017-12-29T09:23:12.700Z,78.90
2017-12-29T09:25:41.018Z,79.00
2017-12-29T09:28:09.323Z,78.70
2017-12-29T09:30:36.880Z,78.60
2017-12-29T09:33:04.420Z,78.50
2017-12-29T09:35:32.749Z,79.10
2017-12-29T09:38:01.044Z,79.10
2017-12-29T09:40:29.379Z,78.70
2017-12-29T09:42:57.714Z,78.90
2017-12-29T09:45:26.020Z,78.90
2017-12-29T09:47:54.336Z,78.70
2017-12-29T09:50:21.900Z,78.70
2017-12-29T09:52:50.198Z,78.20
2017-12-29T09:55:18.518Z,77.90
2017-12-29T09:57:46.819Z,78.10
2017-12-29T10:00:15.140Z,78.10
2017-12-29T10:02:42.680Z,78.10
2017-12-29T10:05:11.005Z,78.30
2017-12-29T10:07:39.303Z,78.20
2017-12-29T10:10:07.630Z,78.00
2017-12-29T10:12:35.167Z,78.00
2017-12-29T10:15:03.495Z,78.00
2017-12-29T10:17:31.802Z,78.20
2017-12-29T10:20:00.132Z,78.10
2017-12-29T10:22:27.666Z,78.10
2017-12-29T10:24:55.990Z,78.10
2017-12-29T10:27:23.532Z,78.10
2017-12-29T10:29:51.887Z,78.20
2017-12-29T10:32:20.190Z,78.20
2017-12-29T10:34:48.518Z,78.50
2017-12-29T10:37:16.831Z,78.40
2017-12-29T10:39:45.212Z,78.70
2017-12-29T10:42:12.812Z,78.70
2017-12-29T10:44:41.155Z,78.50
2017-12-29T10:47:09.467Z,78.70
2017-12-29T10:49:37.025Z,78.70
2017-12-29T10:52:05.334Z,78.80
2017-12-29T10:54:33.675Z,78.80
2017-12-29T10:57:01.979Z,78.30
2017-12-29T10:59:30.282Z,78.10
2017-12-29T11:01:58.606Z,78.00
2017-12-29T11:04:26.139Z,78.00
2017-12-29T11:06:54.458Z,78.70
2017-12-29T11:09:22.761Z,77.70
2017-12-29T11:11:51.084Z,77.80
2017-12-29T11:14:19.387Z,77.50
2017-12-29T11:16:47.706Z,77.70
2017-12-29T11:19:16.017Z,77.40
2017-12-29T11:21:44.346Z,78.30
2017-12-29T11:24:12.645Z,77.40
2017-12-29T11:26:40.975Z,76.70
2017-12-29T11:29:08.520Z,76.70
2017-12-29T11:31:36.070Z,76.20
2017-12-29T11:34:04.383Z,76.10
2017-12-29T11:36:32.740Z,75.90
2017-12-29T11:39:01.059Z,75.90
2017-12-29T11:41:29.397Z,75.80
2017-12-29T11:43:57.698Z,75.90
2017-12-29T11:46:26.046Z,75.70
2017-12-29T11:48:54.343Z,76.20
2017-12-29T11:51:22.671Z,76.80
2017-12-29T11:53:50.976Z,77.30
2017-12-29T11:56:19.295Z,77.30
2017-12-29T11:58:47.603Z,77.20
2017-12-29T12:01:15.923Z,76.80
2017-12-29T12:03:44.224Z,76.50
2017-12-29T12:06:12.555Z,76.40
2017-12-29T12:08:40.859Z,75.80
2017-12-29T12:11:09.178Z,75.90
2017-12-29T12:13:37.488Z,76.00
2017-12-29T12:16:05.811Z,76.70
2017-12-29T12:18:34.111Z,76.80
2017-12-29T12:21:01.655Z,76.90
2017-12-29T12:23:29.957Z,77.10
2017-12-29T12:25:58.283Z,77.00
2017-12-29T12:28:25.863Z,77.00
2017-12-29T12:30:54.190Z,77.60
2017-12-29T12:33:22.496Z,77.60
2017-12-29T12:35:50.792Z,78.00
2017-12-29T12:38:19.119Z,78.50
2017-12-29T12:40:47.427Z,78.70
2017-12-29T12:43:15.746Z,79.10
2017-12-29T12:45:44.056Z,79.50
2017-12-29T12:48:12.385Z,79.70
2017-12-29T12:50:40.687Z,80.10
2017-12-29T12:53:08.248Z,80.10
2017-12-29T12:55:36.550Z,80.90
2017-12-29T12:58:04.876Z,81.00
2017-12-29T13:00:33.170Z,81.20
2017-12-29T13:03:00.743Z,81.20
2017-12-29T13:05:29.059Z,81.80
2017-12-29T13:07:57.387Z,81.80
2017-12-29T13:10:25.685Z,82.50
2017-12-29T13:12:54.023Z,82.90
2017-12-29T13:15:22.318Z,83.80
2017-12-29T13:17:49.871Z,83.80
2017-12-29T13:20:17.399Z,83.90
2017-12-29T13:22:45.722Z,83.50
2017-12-29T13:25:14.014Z,83.00
2017-12-29T13:27:42.355Z,81.90
2017-12-29T13:30:10.646Z,81.40
2017-12-29T13:32:38.958Z,81.40
2017-12-29T13:35:07.256Z,81.60
2017-12-29T13:37:35.575Z,81.30
2017-12-29T13:40:03.885Z,81.00
2017-12-29T13:42:31.440Z,81.00
2017-12-29T13:44:59.743Z,81.40
2017-12-29T13:47:28.063Z,81.80
2017-12-29T13:49:56.366Z,82.40
2017-12-29T13:52:24.679Z,83.20
2017-12-29T13:54:52.978Z,83.40
2017-12-29T13:57:21.302Z,83.80
2017-12-29T13:59:48.833Z,83.80
2017-12-29T14:02:17.146Z,85.30
2017-12-29T14:04:45.468Z,85.90
2017-12-29T14:07:13.046Z,85.90
2017-12-29T14:09:41.341Z,86.10
2017-12-29T14:12:08.876Z,86.10
2017-12-29T14:14:37.203Z,86.60
2017-12-29T14:17:05.579Z,87.20
2017-12-29T14:19:33.875Z,87.30
2017-12-29T14:22:01.402Z,87.40
2017-12-29T14:24:29.727Z,86.90
2017-12-29T14:26:58.035Z,86.80
2017-12-29T14:29:26.361Z,86.80
2017-12-29T14:31:54.664Z,86.50
2017-12-29T14:34:22.994Z,86.20
2017-12-29T14:36:51.287Z,86.20
2017-12-29T14:39:18.842Z,86.30
2017-12-29T14:41:47.143Z,86.50
2017-12-29T14:44:14.702Z,86.50
2017-12-29T14:46:42.998Z,87.10
2017-12-29T14:49:10.548Z,87.20
2017-12-29T14:51:38.851Z,87.50
2017-12-29T14:54:06.407Z,87.40
2017-12-29T14:56:34.702Z,87.70
2017-12-29T14:59:03.018Z,88.00
2017-12-29T15:01:31.346Z,88.00
2017-12-29T15:03:58.898Z,88.00
2017-12-29T15:06:27.194Z,87.60
2017-12-29T15:08:55.520Z,87.50
2017-12-29T15:11:23.884Z,87.30
2017-12-29T15:13:52.172Z,87.40
2017-12-29T15:16:20.471Z,87.20
2017-12-29T15:18:48.788Z,87.20
2017-12-29T15:21:16.326Z,87.00
2017-12-29T15:23:44.651Z,86.70
2017-12-29T15:26:12.956Z,86.70
2017-12-29T15:28:40.512Z,86.70
2017-12-29T15:31:08.066Z,86.70
2017-12-29T15:33:36.392Z,87.20
2017-12-29T15:36:04.693Z,87.10
2017-12-29T15:38:33.019Z,87.10
2017-12-29T15:41:01.374Z,87.30
2017-12-29T15:43:28.903Z,87.30
2017-12-29T15:45:57.227Z,87.20
2017-12-29T15:48:25.523Z,86.90
2017-12-29T15:50:54.710Z,87.00
2017-12-29T15:53:22.252Z,87.00
2017-12-29T15:55:50.571Z,86.60
2017-12-29T15:58:18.866Z,86.50
2017-12-29T16:00:49.945Z,86.50
2017-12-29T16:03:18.244Z,86.40
2017-12-29T16:05:46.564Z,86.40
2017-12-29T16:08:14.864Z,86.60
2017-12-29T16:10:43.187Z,86.70
2017-12-29T16:13:11.483Z,86.80
2017-12-29T16:15:39.807Z,86.90
2017-12-29T16:18:08.106Z,87.00
2017-12-29T16:20:36.422Z,87.20
2017-12-29T16:23:03.958Z,87.20
2017-12-29T16:25:32.279Z,87.30
2017-12-29T16:28:00.589Z,87.50
2017-12-29T16:30:28.908Z,87.30
2017-12-29T16:32:57.212Z,87.30
2017-12-29T16:35:25.584Z,87.40
2017-12-29T16:37:53.887Z,87.70
2017-12-29T16:40:21.446Z,87.60
2017-12-29T16:42:49.763Z,87.60
2017-12-29T16:45:18.096Z,87.60
2017-12-29T16:47:46.395Z,87.50
2017-12-29T16:50:14.723Z,87.60
2017-12-29T16:52:43.056Z,87.50
2017-12-29T16:55:11.387Z,87.50
2017-12-29T16:57:39.695Z,87.60
2017-12-29T17:00:08.016Z,87.50
2017-12-29T17:02:36.327Z,87.30
2017-12-29T17:05:04.652Z,87.00
2017-12-29T17:07:32.961Z,87.00
2017-12-29T17:10:01.283Z,86.70
2017-12-29T17:12:29.598Z,86.50
2017-12-29T17:14:57.914Z,86.60
2017-12-29T17:17:26.229Z,86.90
2017-12-29T17:19:54.577Z,86.80
2017-12-29T17:22:22.884Z,87.10
2017-12-29T17:24:51.202Z,87.20
2017-12-29T17:27:19.518Z,87.50
2017-12-29T17:29:47.824Z,87.70
2017-12-29T17:32:16.161Z,87.90
2017-12-29T17:34:44.470Z,88.00
2017-12-29T17:37:12.821Z,87.90
2017-12-29T17:39:40.387Z,87.90
2017-12-29T17:42:08.718Z,87.80
2017-12-29T17:44:37.030Z,87.80
2017-12-29T17:47:04.588Z,87.80
2017-12-29T17:49:32.891Z,88.10
2017-12-29T17:52:01.215Z,88.20
2017-12-29T17:54:29.516Z,88.20
2017-12-29T17:56:57.843Z,88.50
2017-12-29T17:59:26.166Z,88.70
2017-12-29T18:01:53.723Z,88.70
2017-12-29T18:04:22.026Z,89.30
2017-12-29T18:06:50.391Z,89.40
2017-12-29T18:09:18.691Z,89.70
2017-12-29T18:11:46.244Z,89.70
2017-12-29T18:14:14.552Z,90.00
2017-12-29T18:16:42.870Z,90.00
2017-12-29T18:19:10.399Z,90.00
2017-12-29T18:21:38.724Z,90.00
2017-12-29T18:24:06.261Z,90.00
2017-12-29T18:26:34.587Z,90.00
2017-12-29T18:29:02.898Z,89.90
2017-12-29T18:31:31.214Z,89.80
2017-12-29T18:33:59.515Z,89.70
2017-12-29T18:36:27.846Z,89.70
2017-12-29T18:38:56.155Z,89.80
2017-12-29T18:41:24.492Z,89.80
2017-12-29T18:43:52.797Z,89.70
2017-12-29T18:46:21.119Z,89.60
2017-12-29T18:48:49.414Z,89.60
2017-12-29T18:51:17.743Z,89.60
2017-12-29T18:53:45.298Z,89.60
2017-12-29T18:56:13.634Z,89.50
2017-12-29T18:58:41.936Z,89.60
2017-12-29T19:01:09.469Z,89.60
2017-12-29T19:03:37.786Z,89.80
2017-12-29T19:06:06.098Z,89.90
2017-12-29T19:08:34.423Z,90.00
2017-12-29T19:11:02.731Z,90.00
2017-12-29T19:13:30.294Z,90.00
2017-12-29T19:15:58.595Z,90.00
2017-12-29T19:18:26.153Z,90.00
2017-12-29T19:20:54.455Z,90.00
2017-12-29T19:23:22.783Z,90.00
2017-12-29T19:25:51.090Z,90.10
2017-12-29T19:28:18.654Z,90.10
2017-12-29T19:30:46.198Z,90.40
2017-12-29T19:33:14.519Z,90.60
2017-12-29T19:35:42.824Z,90.60
2017-12-29T19:38:11.143Z,90.60
2017-12-29T19:40:38.718Z,90.60
2017-12-29T19:43:07.043Z,90.60
2017-12-29T19:45:35.353Z,90.60
2017-12-29T19:48:03.680Z,90.60
2017-12-29T19:50:31.983Z,90.70
2017-12-29T19:52:59.543Z,90.70
2017-12-29T19:55:27.854Z,90.80
2017-12-29T19:57:55.422Z,90.80
2017-12-29T20:00:23.730Z,90.70
2017-12-29T20:02:52.060Z,90.70
2017-12-29T20:05:20.368Z,90.60
2017-12-29T20:07:48.692Z,90.60
2017-12-29T20:10:17.005Z,90.60
2017-12-29T20:12:44.562Z,90.60
2017-12-29T20:15:12.862Z,90.60
2017-12-29T20:17:41.192Z,90.70
2017-12-29T20:20:08.735Z,90.70
2017-12-29T20:22:36.300Z,90.80
2017-12-29T20:25:04.607Z,90.90
2017-12-29T20:27:32.928Z,91.00
2017-12-29T20:30:01.241Z,91.00
2017-12-29T20:32:29.560Z,91.00
2017-12-29T20:34:57.944Z,91.00
2017-12-29T20:37:25.477Z,91.00
2017-12-29T20:39:53.799Z,91.10
2017-12-29T20:42:22.122Z,91.10
2017-12-29T20:44:50.445Z,91.10
2017-12-29T20:47:18.755Z,91.10
2017-12-29T20:49:47.083Z,91.10
2017-12-29T20:52:14.627Z,91.10
2017-12-29T20:54:43.012Z,91.10
2017-12-29T20:57:11.312Z,91.10
2017-12-29T20:59:39.635Z,91.10
2017-12-29T21:02:07.942Z,91.10
2017-12-29T21:04:36.315Z,91.10
2017-12-29T21:07:03.859Z,91.10
2017-12-29T21:09:32.251Z,91.20
2017-12-29T21:11:59.800Z,91.20
2017-12-29T21:14:28.118Z,91.30
2017-12-29T21:16:56.442Z,91.30
2017-12-29T21:19:24.012Z,91.30
2017-12-29T21:21:51.554Z,91.20
2017-12-29T21:24:19.880Z,91.30
2017-12-29T21:26:48.198Z,91.30
2017-12-29T21:29:16.524Z,91.30
2017-12-29T21:31:44.832Z,91.20
2017-12-29T21:34:13.179Z,91.30
2017-12-29T21:36:41.470Z,91.30
2017-12-29T21:39:09.036Z,91.30
2017-12-29T21:41:37.339Z,91.20
2017-12-29T21:44:04.902Z,91.20
2017-12-29T21:46:33.202Z,91.20
2017-12-29T21:49:01.528Z,91.20
2017-12-29T21:51:29.824Z,91.10
2017-12-29T21:53:58.160Z,91.10
2017-12-29T21:56:26.465Z,91.10
2017-12-29T21:58:54.754Z,91.00
2017-12-29T22:01:23.083Z,91.00
2017-12-29T22:03:51.388Z,91.10
2017-12-29T22:06:19.714Z,91.10
2017-12-29T22:08:48.011Z,91.00
2017-12-29T22:11:15.567Z,91.00
2017-12-29T22:13:43.868Z,91.00
2017-12-29T22:16:12.182Z,91.10
2017-12-29T22:18:40.486Z,91.00
2017-12-29T22:21:08.853Z,91.00
2017-12-29T22:23:37.150Z,91.00
2017-12-29T22:26:05.451Z,91.00
2017-12-29T22:28:33.772Z,91.10
2017-12-29T22:31:02.072Z,91.10
2017-12-29T22:33:30.391Z,91.10
2017-12-29T22:35:58.683Z,91.10
2017-12-29T22:38:27.005Z,91.10
2017-12-29T22:40:55.300Z,91.10
2017-12-29T22:43:23.631Z,91.10
2017-12-29T22:45:51.930Z,91.20
2017-12-29T22:48:20.227Z,91.30
2017-12-29T22:50:47.774Z,91.30
2017-12-29T22:53:16.070Z,91.50
2017-12-29T22:55:44.380Z,91.50
2017-12-29T22:58:11.923Z,91.50
2017-12-29T23:00:40.246Z,91.90
2017-12-29T23:03:08.542Z,91.50
2017-12-29T23:05:36.867Z,91.60
2017-12-29T23:08:05.163Z,91.60
2017-12-29T23:10:33.498Z,91.60
2017-12-29T23:13:01.802Z,91.80
2017-12-29T23:15:30.109Z,91.80
2017-12-29T23:17:57.672Z,91.80
2017-12-29T23:20:25.205Z,91.90
2017-12-29T23:22:53.531Z,91.80
2017-12-29T23:25:21.852Z,91.90
2017-12-29T23:27:49.415Z,91.90
2017-12-29T23:30:17.718Z,92.00
2017-12-29T23:32:46.050Z,91.90
2017-12-29T23:35:14.350Z,91.80
2017-12-29T23:37:42.735Z,91.80
2017-12-29T23:40:10.256Z,91.80
2017-12-29T23:42:38.551Z,91.70
2017-12-29T23:45:06.871Z,91.70
2017-12-29T23:47:35.162Z,91.80
2017-12-29T23:50:03.479Z,91.80
2017-12-29T23:52:31.015Z,91.80
2017-12-29T23:54:59.342Z,91.70
2017-12-29T23:57:27.642Z,91.70
2017-12-29T23:59:55.959Z,91.70
